sensor_id;sensor_type;location;lat;lon;timestamp;pressure;altitude;pressure_sealevel;temperature;humidity
45129;BME280;35512;56.312;101.728;2023-12-04T00:00:43;93594.16;;;-3.59;84.88
45129;BME280;35512;56.312;101.728;2023-12-04T00:03:12;93597.75;;;-3.51;84.89
45129;BME280;35512;56.312;101.728;2023-12-04T00:05:43;93590.19;;;-3.53;84.72
45129;BME280;35512;56.312;101.728;2023-12-04T00:08:12;93577.56;;;-3.44;84.76
45129;BME280;35512;56.312;101.728;2023-12-04T00:10:41;93573.06;;;-3.43;84.81
45129;BME280;35512;56.312;101.728;2023-12-04T00:13:09;93564.88;;;-3.38;84.98
45129;BME280;35512;56.312;101.728;2023-12-04T00:15:38;93562.91;;;-3.41;84.50
45129;BME280;35512;56.312;101.728;2023-12-04T00:18:06;93560.97;;;-3.44;85.00
45129;BME280;35512;56.312;101.728;2023-12-04T00:20:35;93564.03;;;-3.42;85.10
45129;BME280;35512;56.312;101.728;2023-12-04T00:23:04;93553.19;;;-3.37;84.75
45129;BME280;35512;56.312;101.728;2023-12-04T00:25:32;93554.66;;;-3.40;84.76
45129;BME280;35512;56.312;101.728;2023-12-04T00:28:01;93553.91;;;-3.40;84.80
45129;BME280;35512;56.312;101.728;2023-12-04T00:30:29;93552.44;;;-3.37;84.40
45129;BME280;35512;56.312;101.728;2023-12-04T00:32:57;93562.91;;;-3.41;84.24
45129;BME280;35512;56.312;101.728;2023-12-04T00:35:26;93555.19;;;-3.50;85.05
45129;BME280;35512;56.312;101.728;2023-12-04T00:37:57;93567.63;;;-3.50;84.83
45129;BME280;35512;56.312;101.728;2023-12-04T00:40:25;93565.13;;;-3.43;84.86
45129;BME280;35512;56.312;101.728;2023-12-04T00:42:54;93561.13;;;-3.37;85.54
45129;BME280;35512;56.312;101.728;2023-12-04T00:45:22;93562.41;;;-3.31;85.95
45129;BME280;35512;56.312;101.728;2023-12-04T00:47:51;93561.69;;;-3.28;85.41
45129;BME280;35512;56.312;101.728;2023-12-04T00:50:19;93554.38;;;-3.18;86.16
45129;BME280;35512;56.312;101.728;2023-12-04T00:52:48;93558.53;;;-3.17;85.42
45129;BME280;35512;56.312;101.728;2023-12-04T00:55:17;93548.38;;;-3.15;86.29
45129;BME280;35512;56.312;101.728;2023-12-04T00:57:45;93547.03;;;-3.09;85.66
45129;BME280;35512;56.312;101.728;2023-12-04T01:00:15;93547.50;;;-3.03;86.11
45129;BME280;35512;56.312;101.728;2023-12-04T01:02:44;93543.16;;;-2.96;86.23
45129;BME280;35512;56.312;101.728;2023-12-04T01:05:13;93532.91;;;-2.97;85.77
45129;BME280;35512;56.312;101.728;2023-12-04T01:07:41;93540.44;;;-2.99;85.66
45129;BME280;35512;56.312;101.728;2023-12-04T01:10:10;93544.31;;;-2.93;86.62
45129;BME280;35512;56.312;101.728;2023-12-04T01:12:38;93543.28;;;-2.89;85.95
45129;BME280;35512;56.312;101.728;2023-12-04T01:15:07;93540.56;;;-2.92;86.07
45129;BME280;35512;56.312;101.728;2023-12-04T01:17:35;93539.38;;;-2.95;86.20
45129;BME280;35512;56.312;101.728;2023-12-04T01:20:04;93543.16;;;-2.96;86.62
45129;BME280;35512;56.312;101.728;2023-12-04T01:22:33;93546.19;;;-2.94;86.11
45129;BME280;35512;56.312;101.728;2023-12-04T01:25:01;93549.19;;;-2.95;85.98
45129;BME280;35512;56.312;101.728;2023-12-04T01:27:31;93540.84;;;-2.97;86.18
45129;BME280;35512;56.312;101.728;2023-12-04T01:29:59;93543.81;;;-2.99;86.48
45129;BME280;35512;56.312;101.728;2023-12-04T01:32:29;93537.09;;;-2.96;86.19
45129;BME280;35512;56.312;101.728;2023-12-04T01:34:59;93537.03;;;-3.00;86.27
45129;BME280;35512;56.312;101.728;2023-12-04T01:37:27;93532.91;;;-2.97;86.77
45129;BME280;35512;56.312;101.728;2023-12-04T01:39:56;93524.25;;;-2.98;86.89
45129;BME280;35512;56.312;101.728;2023-12-04T01:42:24;93526.19;;;-2.95;86.36
45129;BME280;35512;56.312;101.728;2023-12-04T01:44:53;93522.50;;;-2.90;86.92
45129;BME280;35512;56.312;101.728;2023-12-04T01:47:22;93518.75;;;-2.89;86.48
45129;BME280;35512;56.312;101.728;2023-12-04T01:49:51;93514.03;;;-2.80;87.31
45129;BME280;35512;56.312;101.728;2023-12-04T01:52:20;93517.78;;;-2.81;86.52
45129;BME280;35512;56.312;101.728;2023-12-04T01:54:48;93517.56;;;-2.72;87.14
45129;BME280;35512;56.312;101.728;2023-12-04T01:57:17;93524.41;;;-2.71;86.76
45129;BME280;35512;56.312;101.728;2023-12-04T01:59:45;93538.78;;;-2.68;86.79
45129;BME280;35512;56.312;101.728;2023-12-04T02:02:14;93531.69;;;-2.64;87.46
45129;BME280;35512;56.312;101.728;2023-12-04T02:04:43;93528.34;;;-2.61;87.16
45129;BME280;35512;56.312;101.728;2023-12-04T02:07:12;93527.25;;;-2.60;87.02
45129;BME280;35512;56.312;101.728;2023-12-04T02:09:41;93527.28;;;-2.57;86.75
45129;BME280;35512;56.312;101.728;2023-12-04T02:12:09;93509.22;;;-2.55;87.52
45129;BME280;35512;56.312;101.728;2023-12-04T02:14:37;93493.41;;;-2.51;87.47
45129;BME280;35512;56.312;101.728;2023-12-04T02:17:06;93485.56;;;-2.47;87.41
45129;BME280;35512;56.312;101.728;2023-12-04T02:19:36;93485.03;;;-2.33;87.39
45129;BME280;35512;56.312;101.728;2023-12-04T02:22:05;93471.06;;;-2.34;86.85
45129;BME280;35512;56.312;101.728;2023-12-04T02:24:33;93470.47;;;-2.24;87.26
45129;BME280;35512;56.312;101.728;2023-12-04T02:27:10;93476.28;;;-2.14;86.97
45129;BME280;35512;56.312;101.728;2023-12-04T02:29:47;93468.06;;;-2.09;87.04
45129;BME280;35512;56.312;101.728;2023-12-04T02:32:15;93457.19;;;-2.04;87.13
45129;BME280;35512;56.312;101.728;2023-12-04T02:34:45;93464.88;;;-1.95;87.02
45129;BME280;35512;56.312;101.728;2023-12-04T02:37:15;93470.31;;;-1.88;86.21
45129;BME280;35512;56.312;101.728;2023-12-04T02:39:45;93454.06;;;-1.87;85.77
45129;BME280;35512;56.312;101.728;2023-12-04T02:42:13;93425.72;;;-1.86;86.42
45129;BME280;35512;56.312;101.728;2023-12-04T02:44:42;93439.09;;;-1.75;85.42
45129;BME280;35512;56.312;101.728;2023-12-04T02:47:11;93441.09;;;-1.68;85.24
45129;BME280;35512;56.312;101.728;2023-12-04T02:49:39;93438.03;;;-1.71;85.09
45129;BME280;35512;56.312;101.728;2023-12-04T02:52:08;93444.84;;;-1.70;84.72
45129;BME280;35512;56.312;101.728;2023-12-04T02:54:36;93445.97;;;-1.71;84.69
45129;BME280;35512;56.312;101.728;2023-12-04T02:57:05;93438.44;;;-1.68;85.27
45129;BME280;35512;56.312;101.728;2023-12-04T02:59:33;93443.81;;;-1.65;85.48
45129;BME280;35512;56.312;101.728;2023-12-04T03:02:02;93432.88;;;-1.60;85.46
45129;BME280;35512;56.312;101.728;2023-12-04T03:04:32;93452.69;;;-1.50;85.33
45129;BME280;35512;56.312;101.728;2023-12-04T03:07:00;93449.22;;;-1.54;85.28
45129;BME280;35512;56.312;101.728;2023-12-04T03:09:29;93464.69;;;-1.56;85.32
45129;BME280;35512;56.312;101.728;2023-12-04T03:12:16;93468.88;;;-1.55;85.06
45129;BME280;35512;56.312;101.728;2023-12-04T03:14:45;93465.88;;;-1.54;85.56
45129;BME280;35512;56.312;101.728;2023-12-04T03:17:13;93462.88;;;-1.52;84.78
45129;BME280;35512;56.312;101.728;2023-12-04T03:19:42;93448.88;;;-1.52;84.24
45129;BME280;35512;56.312;101.728;2023-12-04T03:22:12;93447.06;;;-1.45;84.10
45129;BME280;35512;56.312;101.728;2023-12-04T03:24:40;93450.88;;;-1.46;84.21
45129;BME280;35512;56.312;101.728;2023-12-04T03:27:09;93441.84;;;-1.41;84.07
45129;BME280;35512;56.312;101.728;2023-12-04T03:29:37;93443.16;;;-1.28;84.14
45129;BME280;35512;56.312;101.728;2023-12-04T03:32:06;93441.13;;;-1.38;81.61
45129;BME280;35512;56.312;101.728;2023-12-04T03:34:34;93433.09;;;-1.45;81.53
45129;BME280;35512;56.312;101.728;2023-12-04T03:37:03;93430.34;;;-1.52;81.22
45129;BME280;35512;56.312;101.728;2023-12-04T03:39:31;93425.38;;;-1.58;80.79
45129;BME280;35512;56.312;101.728;2023-12-04T03:42:00;93424.56;;;-1.62;80.87
45129;BME280;35512;56.312;101.728;2023-12-04T03:44:29;93420.69;;;-1.68;80.66
45129;BME280;35512;56.312;101.728;2023-12-04T03:46:57;93399.84;;;-1.73;81.49
45129;BME280;35512;56.312;101.728;2023-12-04T03:49:26;93399.44;;;-1.75;80.73
45129;BME280;35512;56.312;101.728;2023-12-04T03:51:54;93409.28;;;-1.72;81.75
45129;BME280;35512;56.312;101.728;2023-12-04T03:54:23;93418.75;;;-1.71;80.76
45129;BME280;35512;56.312;101.728;2023-12-04T03:56:51;93420.69;;;-1.68;80.78
45129;BME280;35512;56.312;101.728;2023-12-04T03:59:20;93423.44;;;-1.61;81.12
45129;BME280;35512;56.312;101.728;2023-12-04T04:01:49;93415.28;;;-1.48;81.99
45129;BME280;35512;56.312;101.728;2023-12-04T04:04:18;93414.94;;;-1.43;81.61
45129;BME280;35512;56.312;101.728;2023-12-04T04:06:46;93413.09;;;-1.39;81.83
45129;BME280;35512;56.312;101.728;2023-12-04T04:09:15;93407.88;;;-1.36;81.94
45129;BME280;35512;56.312;101.728;2023-12-04T04:11:45;93415.09;;;-1.32;80.86
45129;BME280;35512;56.312;101.728;2023-12-04T04:14:14;93408.66;;;-1.31;79.81
45129;BME280;35512;56.312;101.728;2023-12-04T04:16:42;93404.56;;;-1.29;79.47
45129;BME280;35512;56.312;101.728;2023-12-04T04:19:11;93394.28;;;-1.34;79.50
45129;BME280;35512;56.312;101.728;2023-12-04T04:21:41;93395.31;;;-1.42;79.75
45129;BME280;35512;56.312;101.728;2023-12-04T04:24:09;93403.56;;;-1.47;79.36
45129;BME280;35512;56.312;101.728;2023-12-04T04:26:38;93395.16;;;-1.57;79.11
45129;BME280;35512;56.312;101.728;2023-12-04T04:29:06;93407.19;;;-1.59;78.63
45129;BME280;35512;56.312;101.728;2023-12-04T04:31:35;93415.50;;;-1.61;78.47
45129;BME280;35512;56.312;101.728;2023-12-04T04:34:03;93425.66;;;-1.63;79.56
45129;BME280;35512;56.312;101.728;2023-12-04T04:36:32;93435.50;;;-1.63;79.48
45129;BME280;35512;56.312;101.728;2023-12-04T04:39:01;93408.25;;;-1.64;80.16
45129;BME280;35512;56.312;101.728;2023-12-04T04:41:29;93410.81;;;-1.41;81.79
45129;BME280;35512;56.312;101.728;2023-12-04T04:43:59;93410.97;;;-1.30;80.29
45129;BME280;35512;56.312;101.728;2023-12-04T04:46:28;93394.69;;;-1.32;79.56
45129;BME280;35512;56.312;101.728;2023-12-04T04:48:57;93395.06;;;-1.33;79.87
45129;BME280;35512;56.312;101.728;2023-12-04T04:51:27;93379.50;;;-1.35;80.23
45129;BME280;35512;56.312;101.728;2023-12-04T04:53:55;93364.44;;;-1.31;80.38
45129;BME280;35512;56.312;101.728;2023-12-04T04:56:24;93359.53;;;-1.29;79.91
45129;BME280;35512;56.312;101.728;2023-12-04T04:58:52;93362.25;;;-1.25;79.72
45129;BME280;35512;56.312;101.728;2023-12-04T05:01:21;93362.38;;;-1.11;80.74
45129;BME280;35512;56.312;101.728;2023-12-04T05:03:50;93371.56;;;-1.01;81.38
45129;BME280;35512;56.312;101.728;2023-12-04T05:06:19;93358.41;;;-0.94;80.42
45129;BME280;35512;56.312;101.728;2023-12-04T05:08:48;93348.22;;;-0.88;80.96
45129;BME280;35512;56.312;101.728;2023-12-04T05:11:18;93360.75;;;-0.85;81.37
45129;BME280;35512;56.312;101.728;2023-12-04T05:13:47;93368.38;;;-0.80;81.20
45129;BME280;35512;56.312;101.728;2023-12-04T05:16:15;93369.56;;;-0.74;81.18
45129;BME280;35512;56.312;101.728;2023-12-04T05:18:44;93373.38;;;-0.71;81.29
45129;BME280;35512;56.312;101.728;2023-12-04T05:21:12;93380.59;;;-0.68;81.00
45129;BME280;35512;56.312;101.728;2023-12-04T05:23:41;93387.78;;;-0.69;81.16
45129;BME280;35512;56.312;101.728;2023-12-04T05:26:09;93394.56;;;-0.71;80.27
45129;BME280;35512;56.312;101.728;2023-12-04T05:28:38;93430.47;;;-0.77;79.75
45129;BME280;35512;56.312;101.728;2023-12-04T05:31:06;93416.69;;;-0.94;77.35
45129;BME280;35512;56.312;101.728;2023-12-04T05:33:35;93418.41;;;-1.09;77.59
45129;BME280;35512;56.312;101.728;2023-12-04T05:36:04;93409.09;;;-1.29;77.55
45129;BME280;35512;56.312;101.728;2023-12-04T05:38:32;93400.50;;;-1.49;78.13
45129;BME280;35512;56.312;101.728;2023-12-04T05:41:01;93409.72;;;-1.66;79.75
45129;BME280;35512;56.312;101.728;2023-12-04T05:43:30;93428.38;;;-1.86;80.92
45129;BME280;35512;56.312;101.728;2023-12-04T05:45:58;93419.91;;;-1.95;82.10
45129;BME280;35512;56.312;101.728;2023-12-04T05:48:27;93432.22;;;-2.07;81.69
45129;BME280;35512;56.312;101.728;2023-12-04T05:50:55;93439.50;;;-2.00;83.25
45129;BME280;35512;56.312;101.728;2023-12-04T05:53:24;93456.59;;;-2.17;83.67
45129;BME280;35512;56.312;101.728;2023-12-04T05:55:52;93440.41;;;-2.15;83.69
45129;BME280;35512;56.312;101.728;2023-12-04T05:58:21;93434.13;;;-2.07;84.92
45129;BME280;35512;56.312;101.728;2023-12-04T06:00:50;93427.81;;;-1.99;85.14
45129;BME280;35512;56.312;101.728;2023-12-04T06:03:19;93428.22;;;-1.97;85.16
45129;BME280;35512;56.312;101.728;2023-12-04T06:05:47;93434.97;;;-1.99;84.56
45129;BME280;35512;56.312;101.728;2023-12-04T06:08:18;93432.69;;;-2.01;84.95
45129;BME280;35512;56.312;101.728;2023-12-04T06:10:46;93432.78;;;-1.94;84.91
45129;BME280;35512;56.312;101.728;2023-12-04T06:13:15;93431.66;;;-1.93;85.02
45129;BME280;35512;56.312;101.728;2023-12-04T06:15:44;93440.97;;;-2.02;84.38
45129;BME280;35512;56.312;101.728;2023-12-04T06:18:12;93451.78;;;-1.88;85.42
45129;BME280;35512;56.312;101.728;2023-12-04T06:20:41;93448.00;;;-1.87;85.38
45129;BME280;35512;56.312;101.728;2023-12-04T06:23:09;93454.16;;;-1.79;85.50
45129;BME280;35512;56.312;101.728;2023-12-04T06:25:38;93453.56;;;-1.69;85.45
45129;BME280;35512;56.312;101.728;2023-12-04T06:28:07;93455.44;;;-1.70;84.71
45129;BME280;35512;56.312;101.728;2023-12-04T06:30:36;93452.41;;;-1.72;84.99
45129;BME280;35512;56.312;101.728;2023-12-04T06:33:04;93475.84;;;-1.70;85.42
45129;BME280;35512;56.312;101.728;2023-12-04T06:35:33;93475.41;;;-1.76;84.43
45129;BME280;35512;56.312;101.728;2023-12-04T06:38:05;93467.09;;;-1.74;84.59
45129;BME280;35512;56.312;101.728;2023-12-04T06:40:34;93455.34;;;-1.77;85.37
45129;BME280;35512;56.312;101.728;2023-12-04T06:43:03;93465.19;;;-1.74;85.39
45129;BME280;35512;56.312;101.728;2023-12-04T06:45:32;93475.44;;;-1.72;85.17
45129;BME280;35512;56.312;101.728;2023-12-04T06:48:00;93486.44;;;-1.70;84.95
45129;BME280;35512;56.312;101.728;2023-12-04T06:50:29;93496.72;;;-1.65;85.43
45129;BME280;35512;56.312;101.728;2023-12-04T06:52:57;93507.09;;;-1.52;85.04
45129;BME280;35512;56.312;101.728;2023-12-04T06:55:26;93514.31;;;-1.49;85.42
45129;BME280;35512;56.312;101.728;2023-12-04T06:57:54;93519.25;;;-1.48;84.73
45129;BME280;35512;56.312;101.728;2023-12-04T07:00:24;93530.16;;;-1.53;84.78
45129;BME280;35512;56.312;101.728;2023-12-04T07:02:54;93520.78;;;-1.47;84.92
45129;BME280;35512;56.312;101.728;2023-12-04T07:05:23;93516.63;;;-1.48;84.26
45129;BME280;35512;56.312;101.728;2023-12-04T07:07:51;93521.09;;;-1.52;84.16
45129;BME280;35512;56.312;101.728;2023-12-04T07:10:19;93538.16;;;-1.49;83.94
45129;BME280;35512;56.312;101.728;2023-12-04T07:12:48;93535.91;;;-1.47;82.88
45129;BME280;35512;56.312;101.728;2023-12-04T07:15:17;93530.31;;;-1.42;82.78
45129;BME280;35512;56.312;101.728;2023-12-04T07:17:45;93524.34;;;-1.36;82.64
45129;BME280;35512;56.312;101.728;2023-12-04T07:20:14;93534.94;;;-1.36;83.03
45129;BME280;35512;56.312;101.728;2023-12-04T07:22:42;93530.38;;;-1.39;82.40
45129;BME280;35512;56.312;101.728;2023-12-04T07:25:11;93532.59;;;-1.41;82.33
45129;BME280;35512;56.312;101.728;2023-12-04T07:27:39;93547.28;;;-1.43;82.77
45129;BME280;35512;56.312;101.728;2023-12-04T07:30:08;93552.19;;;-1.45;81.99
45129;BME280;35512;56.312;101.728;2023-12-04T07:32:36;93567.66;;;-1.47;81.66
45129;BME280;35512;56.312;101.728;2023-12-04T07:35:05;93564.44;;;-1.60;81.59
45129;BME280;35512;56.312;101.728;2023-12-04T07:37:34;93577.22;;;-1.66;81.40
45129;BME280;35512;56.312;101.728;2023-12-04T07:40:03;93586.19;;;-1.71;81.34
45129;BME280;35512;56.312;101.728;2023-12-04T07:42:34;93583.88;;;-1.76;82.18
45129;BME280;35512;56.312;101.728;2023-12-04T07:45:03;93596.28;;;-1.80;82.00
45129;BME280;35512;56.312;101.728;2023-12-04T07:47:32;93594.72;;;-1.81;81.88
45129;BME280;35512;56.312;101.728;2023-12-04T07:50:02;93596.28;;;-1.80;81.91
45129;BME280;35512;56.312;101.728;2023-12-04T07:52:30;93603.41;;;-1.80;82.07
45129;BME280;35512;56.312;101.728;2023-12-04T07:54:59;93604.13;;;-1.83;82.12
45129;BME280;35512;56.312;101.728;2023-12-04T07:57:29;93615.78;;;-2.08;82.53
45129;BME280;35512;56.312;101.728;2023-12-04T07:59:58;93619.91;;;-2.10;83.57
45129;BME280;35512;56.312;101.728;2023-12-04T08:02:27;93610.47;;;-2.11;84.27
45129;BME280;35512;56.312;101.728;2023-12-04T08:04:56;93620.19;;;-2.15;84.73
45129;BME280;35512;56.312;101.728;2023-12-04T08:07:25;93614.97;;;-2.12;85.13
45129;BME280;35512;56.312;101.728;2023-12-04T08:09:53;93608.50;;;-2.14;85.18
45129;BME280;35512;56.312;101.728;2023-12-04T08:12:22;93624.59;;;-2.23;84.84
45129;BME280;35512;56.312;101.728;2023-12-04T08:14:50;93615.66;;;-2.15;85.94
45129;BME280;35512;56.312;101.728;2023-12-04T08:17:19;93627.44;;;-2.12;85.93
45129;BME280;35512;56.312;101.728;2023-12-04T08:19:48;93634.94;;;-2.14;86.03
45129;BME280;35512;56.312;101.728;2023-12-04T08:22:19;93627.31;;;-2.19;85.85
45129;BME280;35512;56.312;101.728;2023-12-04T08:24:48;93622.84;;;-2.15;85.76
45129;BME280;35512;56.312;101.728;2023-12-04T08:27:17;93629.09;;;-2.24;86.17
45129;BME280;35512;56.312;101.728;2023-12-04T08:29:45;93637.25;;;-2.32;86.28
45129;BME280;35512;56.312;101.728;2023-12-04T08:32:13;93624.91;;;-2.44;86.31
45129;BME280;35512;56.312;101.728;2023-12-04T08:34:42;93637.28;;;-2.68;85.72
45129;BME280;35512;56.312;101.728;2023-12-04T08:37:10;93630.94;;;-2.83;85.47
45129;BME280;35512;56.312;101.728;2023-12-04T08:39:39;93634.72;;;-3.00;85.79
45129;BME280;35512;56.312;101.728;2023-12-04T08:42:07;93643.16;;;-3.10;85.22
45129;BME280;35512;56.312;101.728;2023-12-04T08:44:47;93653.81;;;-3.23;85.03
45129;BME280;35512;56.312;101.728;2023-12-04T08:47:15;93654.16;;;-3.24;85.12
45129;BME280;35512;56.312;101.728;2023-12-04T08:49:44;93655.63;;;-3.27;84.90
45129;BME280;35512;56.312;101.728;2023-12-04T08:52:16;93660.44;;;-3.29;85.02
45129;BME280;35512;56.312;101.728;2023-12-04T08:54:45;93662.34;;;-3.29;85.22
45129;BME280;35512;56.312;101.728;2023-12-04T08:57:13;93660.28;;;-3.36;84.89
45129;BME280;35512;56.312;101.728;2023-12-04T08:59:42;93668.72;;;-3.46;84.69
45129;BME280;35512;56.312;101.728;2023-12-04T09:02:11;93668.47;;;-3.57;84.31
45129;BME280;35512;56.312;101.728;2023-12-04T09:04:42;93670.16;;;-3.65;84.69
45129;BME280;35512;56.312;101.728;2023-12-04T09:07:11;93690.75;;;-3.70;84.87
45129;BME280;35512;56.312;101.728;2023-12-04T09:09:59;93678.81;;;-3.64;84.97
45129;BME280;35512;56.312;101.728;2023-12-04T09:12:37;93687.53;;;-3.64;85.14
45129;BME280;35512;56.312;101.728;2023-12-04T09:15:06;93697.63;;;-3.66;84.82
45129;BME280;35512;56.312;101.728;2023-12-04T09:17:36;93700.38;;;-3.62;85.08
45129;BME280;35512;56.312;101.728;2023-12-04T09:20:07;93710.25;;;-3.59;84.99
45129;BME280;35512;56.312;101.728;2023-12-04T09:22:37;93708.03;;;-3.57;85.28
45129;BME280;35512;56.312;101.728;2023-12-04T09:25:19;93715.63;;;-3.55;85.04
45129;BME280;35512;56.312;101.728;2023-12-04T09:27:48;93720.66;;;-3.50;85.26
45129;BME280;35512;56.312;101.728;2023-12-04T09:30:16;93724.28;;;-3.55;85.31
45129;BME280;35512;56.312;101.728;2023-12-04T09:32:45;93710.00;;;-3.54;85.38
45129;BME280;35512;56.312;101.728;2023-12-04T09:35:15;93727.69;;;-3.54;84.76
45129;BME280;35512;56.312;101.728;2023-12-04T09:37:44;93733.13;;;-3.63;84.99
45129;BME280;35512;56.312;101.728;2023-12-04T09:40:14;93739.06;;;-3.66;84.94
45129;BME280;35512;56.312;101.728;2023-12-04T09:42:43;93747.31;;;-3.68;85.04
45129;BME280;35512;56.312;101.728;2023-12-04T09:45:12;93753.34;;;-3.67;84.84
45129;BME280;35512;56.312;101.728;2023-12-04T09:47:42;93757.78;;;-3.71;84.29
45129;BME280;35512;56.312;101.728;2023-12-04T09:50:11;93751.88;;;-3.81;84.69
45129;BME280;35512;56.312;101.728;2023-12-04T09:52:40;93747.69;;;-3.82;84.60
45129;BME280;35512;56.312;101.728;2023-12-04T09:55:09;93763.00;;;-3.87;84.63
45129;BME280;35512;56.312;101.728;2023-12-04T09:57:38;93757.31;;;-3.89;84.10
45129;BME280;35512;56.312;101.728;2023-12-04T10:00:08;93752.38;;;-3.91;84.33
45129;BME280;35512;56.312;101.728;2023-12-04T10:02:42;93764.75;;;-3.92;84.30
45129;BME280;35512;56.312;101.728;2023-12-04T10:05:11;93770.94;;;-4.00;84.53
45129;BME280;35512;56.312;101.728;2023-12-04T10:07:40;93767.97;;;-3.98;84.46
45129;BME280;35512;56.312;101.728;2023-12-04T10:10:08;93757.75;;;-4.00;84.48
45129;BME280;35512;56.312;101.728;2023-12-04T10:12:36;93767.88;;;-4.02;84.38
45129;BME280;35512;56.312;101.728;2023-12-04T10:15:07;93773.16;;;-4.02;84.49
45129;BME280;35512;56.312;101.728;2023-12-04T10:17:37;93770.94;;;-4.00;84.21
45129;BME280;35512;56.312;101.728;2023-12-04T10:22:56;93795.34;;;-4.03;84.67
45129;BME280;35512;56.312;101.728;2023-12-04T10:25:26;93801.47;;;-3.99;83.90
45129;BME280;35512;56.312;101.728;2023-12-04T10:28:09;93796.63;;;-3.97;84.30
45129;BME280;35512;56.312;101.728;2023-12-04T10:30:38;93795.13;;;-3.98;84.30
45129;BME280;35512;56.312;101.728;2023-12-04T10:33:07;93796.63;;;-3.97;84.88
45129;BME280;35512;56.312;101.728;2023-12-04T10:35:36;93793.44;;;-3.90;84.51
45129;BME280;35512;56.312;101.728;2023-12-04T10:38:05;93796.06;;;-3.90;84.80
45129;BME280;35512;56.312;101.728;2023-12-04T10:40:35;93802.53;;;-3.87;85.10
45129;BME280;35512;56.312;101.728;2023-12-04T10:43:19;93805.63;;;-3.85;84.21
45129;BME280;35512;56.312;101.728;2023-12-04T10:45:48;93806.38;;;-3.85;84.41
45129;BME280;35512;56.312;101.728;2023-12-04T10:48:18;93804.09;;;-3.86;84.08
45129;BME280;35512;56.312;101.728;2023-12-04T10:50:48;93801.00;;;-3.76;84.29
45129;BME280;35512;56.312;101.728;2023-12-04T10:53:17;93815.69;;;-3.75;84.16
45129;BME280;35512;56.312;101.728;2023-12-04T10:55:46;93819.13;;;-3.75;84.38
45129;BME280;35512;56.312;101.728;2023-12-04T10:58:16;93799.00;;;-3.79;83.91
45129;BME280;35512;56.312;101.728;2023-12-04T11:00:48;93800.34;;;-3.85;83.82
45129;BME280;35512;56.312;101.728;2023-12-04T11:05:46;93801.91;;;-3.84;84.10
45129;BME280;35512;56.312;101.728;2023-12-04T11:08:18;93807.16;;;-3.84;84.06
45129;BME280;35512;56.312;101.728;2023-12-04T11:13:21;93817.81;;;-3.81;83.74
45129;BME280;35512;56.312;101.728;2023-12-04T11:15:50;93829.56;;;-3.78;83.40
45129;BME280;35512;56.312;101.728;2023-12-04T11:18:21;93829.56;;;-3.78;83.69
45129;BME280;35512;56.312;101.728;2023-12-04T11:20:52;93832.06;;;-3.69;83.36
45129;BME280;35512;56.312;101.728;2023-12-04T11:23:24;93841.59;;;-3.65;83.48
45129;BME280;35512;56.312;101.728;2023-12-04T11:25:53;93830.19;;;-3.69;82.94
45129;BME280;35512;56.312;101.728;2023-12-04T11:28:22;93842.50;;;-3.73;83.50
45129;BME280;35512;56.312;101.728;2023-12-04T11:30:51;93847.22;;;-3.66;82.94
45129;BME280;35512;56.312;101.728;2023-12-04T11:33:20;93854.91;;;-3.61;83.09
45129;BME280;35512;56.312;101.728;2023-12-04T11:35:49;93860.84;;;-3.64;82.91
45129;BME280;35512;56.312;101.728;2023-12-04T11:38:18;93854.47;;;-3.63;83.38
45129;BME280;35512;56.312;101.728;2023-12-04T11:40:47;93859.41;;;-3.62;83.20
45129;BME280;35512;56.312;101.728;2023-12-04T11:43:22;93870.97;;;-3.66;82.85
45129;BME280;35512;56.312;101.728;2023-12-04T11:45:51;93866.03;;;-3.68;83.05
45129;BME280;35512;56.312;101.728;2023-12-04T11:48:23;93877.66;;;-3.69;83.27
45129;BME280;35512;56.312;101.728;2023-12-04T11:50:52;93883.16;;;-3.74;82.51
45129;BME280;35512;56.312;101.728;2023-12-04T11:53:24;93875.16;;;-3.78;83.53
45129;BME280;35512;56.312;101.728;2023-12-04T11:55:54;93900.09;;;-3.75;83.73
45129;BME280;35512;56.312;101.728;2023-12-04T11:58:24;93890.41;;;-3.71;83.53
45129;BME280;35512;56.312;101.728;2023-12-04T12:00:55;93883.69;;;-3.68;83.49
45129;BME280;35512;56.312;101.728;2023-12-04T12:03:25;93883.47;;;-3.63;83.29
45129;BME280;35512;56.312;101.728;2023-12-04T12:05:55;93874.47;;;-3.62;83.52
45129;BME280;35512;56.312;101.728;2023-12-04T12:08:24;93887.53;;;-3.66;83.35
45129;BME280;35512;56.312;101.728;2023-12-04T12:10:53;93903.72;;;-3.67;83.26
45129;BME280;35512;56.312;101.728;2023-12-04T12:13:22;93891.63;;;-3.68;83.04
45129;BME280;35512;56.312;101.728;2023-12-04T12:15:54;93905.28;;;-3.79;82.71
45129;BME280;35512;56.312;101.728;2023-12-04T12:18:22;93899.56;;;-3.81;83.09
45129;BME280;35512;56.312;101.728;2023-12-04T12:20:54;93906.47;;;-3.76;83.12
45129;BME280;35512;56.312;101.728;2023-12-04T12:23:23;93909.34;;;-3.81;83.51
45129;BME280;35512;56.312;101.728;2023-12-04T12:25:51;93911.53;;;-3.83;83.26
45129;BME280;35512;56.312;101.728;2023-12-04T12:28:20;93917.94;;;-3.84;83.53
45129;BME280;35512;56.312;101.728;2023-12-04T12:30:48;93938.22;;;-3.85;83.19
45129;BME280;35512;56.312;101.728;2023-12-04T12:33:17;93930.22;;;-3.88;83.13
45129;BME280;35512;56.312;101.728;2023-12-04T12:35:46;93938.69;;;-3.83;82.66
45129;BME280;35512;56.312;101.728;2023-12-04T12:38:26;93955.72;;;-3.80;82.64
45129;BME280;35512;56.312;101.728;2023-12-04T12:40:55;93952.75;;;-3.79;82.77
45129;BME280;35512;56.312;101.728;2023-12-04T12:43:24;93969.00;;;-3.77;82.82
45129;BME280;35512;56.312;101.728;2023-12-04T12:45:55;93964.72;;;-3.69;82.91
45129;BME280;35512;56.312;101.728;2023-12-04T12:48:24;93972.63;;;-3.69;82.18
45129;BME280;35512;56.312;101.728;2023-12-04T12:50:57;93977.56;;;-3.67;83.21
45129;BME280;35512;56.312;101.728;2023-12-04T12:53:26;93974.50;;;-3.69;83.32
45129;BME280;35512;56.312;101.728;2023-12-04T12:55:54;93980.09;;;-3.71;83.12
45129;BME280;35512;56.312;101.728;2023-12-04T12:58:24;93980.53;;;-3.69;83.19